createdAt,value
2018-09-18T00:00:08.653Z,99.90
2018-09-18T00:02:37.000Z,99.90
2018-09-18T00:05:05.280Z,99.90
2018-09-18T00:07:33.585Z,99.90
2018-09-18T00:10:01.864Z,99.90
2018-09-18T00:12:30.140Z,99.90
2018-09-18T00:14:58.444Z,99.90
2018-09-18T00:17:26.813Z,99.90
2018-09-18T00:19:55.080Z,99.90
2018-09-18T00:22:23.653Z,99.90
2018-09-18T00:24:51.923Z,99.90
2018-09-18T00:27:20.299Z,99.90
2018-09-18T00:29:48.601Z,99.90
2018-09-18T00:32:17.009Z,99.90
2018-09-18T00:34:45.289Z,99.90
2018-09-18T00:37:13.618Z,99.90
2018-09-18T00:39:41.889Z,99.90
2018-09-18T00:42:10.321Z,99.90
2018-09-18T00:44:38.604Z,99.90
2018-09-18T00:47:06.895Z,99.90
2018-09-18T00:49:35.176Z,99.90
2018-09-18T00:52:03.489Z,99.90
2018-09-18T00:54:31.758Z,99.90
2018-09-18T00:57:00.040Z,99.90
2018-09-18T00:59:28.360Z,99.90
2018-09-18T01:01:56.647Z,99.90
2018-09-18T01:04:24.996Z,99.90
2018-09-18T01:06:53.548Z,99.90
2018-09-18T01:09:28.456Z,99.90
2018-09-18T01:11:56.816Z,99.90
2018-09-18T01:14:25.149Z,99.90
2018-09-18T01:16:53.427Z,99.90
2018-09-18T01:19:21.801Z,99.90
2018-09-18T01:21:50.072Z,99.90
2018-09-18T01:24:18.349Z,99.90
2018-09-18T01:26:46.663Z,99.90
2018-09-18T01:29:14.953Z,99.90
2018-09-18T01:31:43.228Z,99.90
2018-09-18T01:34:11.537Z,99.90
2018-09-18T01:36:39.799Z,99.90
2018-09-18T01:39:08.669Z,99.90
2018-09-18T01:41:37.040Z,99.90
2018-09-18T01:44:05.313Z,99.90
2018-09-18T01:46:33.596Z,99.90
2018-09-18T01:49:01.888Z,99.90
2018-09-18T01:51:30.300Z,99.90
2018-09-18T01:53:58.602Z,99.90
2018-09-18T01:56:27.273Z,99.90
2018-09-18T01:58:55.549Z,99.90
2018-09-18T02:01:23.828Z,99.90
2018-09-18T02:03:52.136Z,99.90
2018-09-18T02:06:20.604Z,99.90
2018-09-18T02:08:49.076Z,99.90
2018-09-18T02:11:17.632Z,99.90
2018-09-18T02:13:45.949Z,99.90
2018-09-18T02:16:14.241Z,99.90
2018-09-18T02:18:42.544Z,99.90
2018-09-18T02:21:10.828Z,99.90
2018-09-18T02:23:39.100Z,99.90
2018-09-18T02:26:07.883Z,99.90
2018-09-18T02:28:36.144Z,99.90
2018-09-18T02:31:04.432Z,99.90
2018-09-18T02:33:32.988Z,99.90
2018-09-18T02:36:01.441Z,99.90
2018-09-18T02:38:29.717Z,99.90
2018-09-18T02:40:58.360Z,99.90
2018-09-18T02:43:26.633Z,99.90
2018-09-18T02:45:54.900Z,99.90
2018-09-18T02:48:23.233Z,99.90
2018-09-18T02:50:51.512Z,99.90
2018-09-18T02:53:19.826Z,99.90
2018-09-18T02:55:48.125Z,99.90
2018-09-18T02:58:16.421Z,99.90
2018-09-18T03:00:44.704Z,99.90
2018-09-18T03:03:13.004Z,99.90
2018-09-18T03:05:41.275Z,99.90
2018-09-18T03:08:09.569Z,99.90
2018-09-18T03:10:37.868Z,99.90
2018-09-18T03:13:06.141Z,99.90
2018-09-18T03:15:34.416Z,99.90
2018-09-18T03:18:02.716Z,99.90
2018-09-18T03:20:31.001Z,99.90
2018-09-18T03:22:59.313Z,99.90
2018-09-18T03:25:27.616Z,99.90
2018-09-18T03:27:56.344Z,99.90
2018-09-18T03:30:24.644Z,99.90
2018-09-18T03:32:52.975Z,99.90
2018-09-18T03:35:21.291Z,99.90
2018-09-18T03:37:49.565Z,99.90
2018-09-18T03:40:17.912Z,99.90
2018-09-18T03:42:46.180Z,99.90
2018-09-18T03:45:14.464Z,99.90
2018-09-18T03:47:43.244Z,99.90
2018-09-18T03:50:11.512Z,99.90
2018-09-18T03:52:39.782Z,99.90
2018-09-18T03:55:08.200Z,99.90
2018-09-18T03:57:36.472Z,99.90
2018-09-18T04:00:04.816Z,99.90
2018-09-18T04:02:33.108Z,99.90
2018-09-18T04:05:01.556Z,99.90
2018-09-18T04:07:29.864Z,99.90
2018-09-18T04:09:58.172Z,99.90
2018-09-18T04:12:26.464Z,99.90
2018-09-18T04:14:54.746Z,99.90
2018-09-18T04:17:23.607Z,99.90
2018-09-18T04:19:51.896Z,99.90
2018-09-18T04:22:20.180Z,99.90
2018-09-18T04:24:48.466Z,99.90
2018-09-18T04:27:17.755Z,99.90
2018-09-18T04:29:46.025Z,99.90
2018-09-18T04:32:14.317Z,99.90
2018-09-18T04:34:42.595Z,99.90
2018-09-18T04:37:10.889Z,99.90
2018-09-18T04:39:39.493Z,99.90
2018-09-18T04:42:07.779Z,99.90
2018-09-18T04:44:36.044Z,99.90
2018-09-18T04:47:04.345Z,99.90
2018-09-18T04:49:32.608Z,99.90
2018-09-18T04:52:00.902Z,99.90
2018-09-18T04:54:29.210Z,99.90
2018-09-18T04:56:57.508Z,99.90
2018-09-18T04:59:25.812Z,99.90
2018-09-18T05:01:54.139Z,99.90
2018-09-18T05:04:22.876Z,99.90
2018-09-18T05:06:51.150Z,99.90
2018-09-18T05:09:19.685Z,99.90
2018-09-18T05:11:47.904Z,99.90
2018-09-18T05:14:16.195Z,99.90
2018-09-18T05:16:44.505Z,99.90
2018-09-18T05:19:12.789Z,99.90
2018-09-18T05:21:41.106Z,99.90
2018-09-18T05:24:09.409Z,99.90
2018-09-18T05:26:37.689Z,99.90
2018-09-18T05:29:05.983Z,99.90
2018-09-18T05:31:34.280Z,99.90
2018-09-18T05:34:02.572Z,99.90
2018-09-18T05:36:30.848Z,99.90
2018-09-18T05:38:59.155Z,99.90
2018-09-18T05:41:27.461Z,99.90
2018-09-18T05:43:55.745Z,99.90
2018-09-18T05:46:24.061Z,99.90
2018-09-18T05:48:52.345Z,99.90
2018-09-18T05:51:20.655Z,99.90
2018-09-18T05:53:48.968Z,99.90
2018-09-18T05:56:17.260Z,99.90
2018-09-18T05:58:45.536Z,99.90
2018-09-18T06:01:13.837Z,99.90
2018-09-18T06:03:42.341Z,99.90
2018-09-18T06:06:10.624Z,99.90
2018-09-18T06:08:38.948Z,99.90
2018-09-18T06:11:07.240Z,99.90
2018-09-18T06:13:35.625Z,99.90
2018-09-18T06:16:03.954Z,99.90
2018-09-18T06:18:32.353Z,99.90
2018-09-18T06:21:00.647Z,99.90
2018-09-18T06:23:28.968Z,99.90
2018-09-18T06:25:57.244Z,99.90
2018-09-18T06:28:25.525Z,99.90
2018-09-18T06:30:53.830Z,99.90
2018-09-18T06:33:22.148Z,99.90
2018-09-18T06:35:50.804Z,99.90
2018-09-18T06:38:19.396Z,99.90
2018-09-18T06:40:47.672Z,99.90
2018-09-18T06:43:16.081Z,99.90
2018-09-18T06:45:44.694Z,99.90
2018-09-18T06:48:13.263Z,99.90
2018-09-18T06:50:41.611Z,98.70
2018-09-18T06:53:10.132Z,96.30
2018-09-18T06:55:38.417Z,96.10
2018-09-18T06:58:06.724Z,94.90
2018-09-18T07:00:35.033Z,94.60
2018-09-18T07:03:03.333Z,94.90
2018-09-18T07:05:31.696Z,92.40
2018-09-18T07:07:59.984Z,92.20
2018-09-18T07:10:28.671Z,90.30
2018-09-18T07:12:57.076Z,90.60
2018-09-18T07:15:25.563Z,91.90
2018-09-18T07:17:53.920Z,89.70
2018-09-18T07:20:22.256Z,90.90
2018-09-18T07:22:50.652Z,89.60
2018-09-18T07:25:19.825Z,90.70
2018-09-18T07:27:48.144Z,89.40
2018-09-18T07:30:16.876Z,87.60
2018-09-18T07:32:45.188Z,86.90
2018-09-18T07:35:13.625Z,82.50
2018-09-18T07:37:41.948Z,82.50
2018-09-18T07:40:10.236Z,79.10
2018-09-18T07:42:38.528Z,80.80
2018-09-18T07:45:06.907Z,79.70
2018-09-18T07:47:35.194Z,79.00
2018-09-18T07:50:03.521Z,77.60
2018-09-18T07:52:32.377Z,75.70
2018-09-18T07:55:00.677Z,76.70
2018-09-18T07:57:29.089Z,74.50
2018-09-18T07:59:57.401Z,72.50
2018-09-18T08:02:26.612Z,77.60
2018-09-18T08:04:54.924Z,76.00
2018-09-18T08:07:23.275Z,76.40
2018-09-18T08:09:51.600Z,73.50
2018-09-18T08:12:20.449Z,75.50
2018-09-18T08:14:49.744Z,71.80
2018-09-18T08:17:18.032Z,71.20
2018-09-18T08:19:46.476Z,75.40
2018-09-18T08:22:14.648Z,72.10
2018-09-18T08:24:43.159Z,75.00
2018-09-18T08:27:11.446Z,77.50
2018-09-18T08:29:40.094Z,83.00
2018-09-18T08:32:08.393Z,88.40
2018-09-18T08:34:36.710Z,91.20
2018-09-18T08:37:05.216Z,91.80
2018-09-18T08:39:33.578Z,92.20
2018-09-18T08:42:01.869Z,94.00
2018-09-18T08:44:30.250Z,95.30
2018-09-18T08:46:58.562Z,98.50
2018-09-18T08:49:27.982Z,99.90
2018-09-18T08:51:57.422Z,99.90
2018-09-18T08:54:25.610Z,99.90
2018-09-18T08:56:53.927Z,99.90
2018-09-18T08:59:22.395Z,99.90
2018-09-18T09:01:50.710Z,99.90
2018-09-18T09:04:18.997Z,99.90
2018-09-18T09:06:47.321Z,99.90
2018-09-18T09:09:15.764Z,99.90
2018-09-18T09:11:45.146Z,99.90
2018-09-18T09:14:13.541Z,99.90
2018-09-18T09:16:42.297Z,99.90
2018-09-18T09:19:10.888Z,99.90
2018-09-18T09:21:39.207Z,99.90
2018-09-18T09:24:07.483Z,99.90
2018-09-18T09:26:37.504Z,98.70
2018-09-18T09:29:06.085Z,98.50
2018-09-18T09:31:35.779Z,98.70
2018-09-18T09:34:04.453Z,98.10
2018-09-18T09:36:32.933Z,98.50
2018-09-18T09:39:01.220Z,97.40
2018-09-18T09:41:29.508Z,96.30
2018-09-18T09:43:57.825Z,99.00
2018-09-18T09:46:26.209Z,98.30
2018-09-18T09:48:54.497Z,98.80
2018-09-18T09:51:22.820Z,96.30
2018-09-18T09:53:51.084Z,97.80
2018-09-18T09:56:19.349Z,96.10
2018-09-18T09:58:47.648Z,97.10
2018-09-18T10:01:21.346Z,98.20
2018-09-18T10:03:49.658Z,97.50
2018-09-18T10:06:18.968Z,97.00
2018-09-18T10:08:47.254Z,97.40
2018-09-18T10:11:15.557Z,96.20
2018-09-18T10:13:43.854Z,96.50
2018-09-18T10:16:12.140Z,97.20
2018-09-18T10:18:40.458Z,95.90
2018-09-18T10:21:08.749Z,94.80
2018-09-18T10:23:37.052Z,94.20
2018-09-18T10:26:05.402Z,94.30
2018-09-18T10:28:33.717Z,94.80
2018-09-18T10:31:02.091Z,94.70
2018-09-18T10:33:30.440Z,95.70
2018-09-18T10:35:58.739Z,94.50
2018-09-18T10:38:27.057Z,94.30
2018-09-18T10:40:55.525Z,95.00
2018-09-18T10:43:23.727Z,93.30
2018-09-18T10:45:52.025Z,93.90
2018-09-18T10:48:20.356Z,93.90
2018-09-18T10:50:48.637Z,91.40
2018-09-18T10:53:16.935Z,92.10
2018-09-18T10:55:45.318Z,91.60
2018-09-18T10:58:13.673Z,90.90
2018-09-18T11:00:41.959Z,92.10
2018-09-18T11:03:10.276Z,91.80
2018-09-18T11:05:39.568Z,91.50
2018-09-18T11:08:07.843Z,92.40
2018-09-18T11:10:36.213Z,92.40
2018-09-18T11:13:04.444Z,91.60
2018-09-18T11:15:33.001Z,90.70
2018-09-18T11:18:01.253Z,90.00
2018-09-18T11:20:29.569Z,89.70
2018-09-18T11:22:57.839Z,87.70
2018-09-18T11:25:26.217Z,81.00
2018-09-18T11:27:54.439Z,84.70
2018-09-18T11:30:22.731Z,89.40
2018-09-18T11:32:51.088Z,89.00
2018-09-18T11:35:19.342Z,85.90
2018-09-18T11:37:47.617Z,82.20
2018-09-18T11:40:15.913Z,87.70
2018-09-18T11:42:44.184Z,85.90
2018-09-18T11:45:12.573Z,84.70
2018-09-18T11:47:40.927Z,85.60
2018-09-18T11:50:09.421Z,83.30
2018-09-18T11:52:37.749Z,79.00
2018-09-18T11:55:06.066Z,79.90
2018-09-18T11:57:34.877Z,80.10
2018-09-18T12:00:03.234Z,80.00
2018-09-18T12:02:31.821Z,80.10
2018-09-18T12:05:00.138Z,78.60
2018-09-18T12:07:28.418Z,77.10
2018-09-18T12:09:56.741Z,78.70
2018-09-18T12:12:25.024Z,77.70
2018-09-18T12:14:53.621Z,77.70
2018-09-18T12:17:21.925Z,78.50
2018-09-18T12:19:50.526Z,78.40
2018-09-18T12:22:18.904Z,76.70
2018-09-18T12:24:47.177Z,78.20
2018-09-18T12:27:15.521Z,79.80
2018-09-18T12:29:43.801Z,82.70
2018-09-18T12:32:12.120Z,83.80
2018-09-18T12:34:40.436Z,84.00
2018-09-18T12:37:08.912Z,84.10
2018-09-18T12:39:37.235Z,84.30
2018-09-18T12:42:05.646Z,86.30
2018-09-18T12:44:34.088Z,87.20
2018-09-18T12:47:02.542Z,87.90
2018-09-18T12:49:31.068Z,87.90
2018-09-18T12:51:59.134Z,87.40
2018-09-18T12:54:27.469Z,87.00
2018-09-18T12:56:55.842Z,87.30
2018-09-18T12:59:24.520Z,88.40
2018-09-18T13:01:52.770Z,88.40
2018-09-18T13:04:21.049Z,88.40
2018-09-18T13:06:49.417Z,87.40
2018-09-18T13:09:17.660Z,86.80
2018-09-18T13:11:45.986Z,86.80
2018-09-18T13:14:14.447Z,86.60
2018-09-18T13:16:42.734Z,86.40
2018-09-18T13:19:11.006Z,86.70
2018-09-18T13:21:39.384Z,88.10
2018-09-18T13:24:07.717Z,86.30
2018-09-18T13:26:37.214Z,88.00
2018-09-18T13:29:05.577Z,86.90
2018-09-18T13:31:37.252Z,86.10
2018-09-18T13:34:05.537Z,86.50
2018-09-18T13:36:33.963Z,86.80
2018-09-18T13:39:02.288Z,85.50
2018-09-18T13:41:30.877Z,84.30
2018-09-18T13:43:59.289Z,85.50
2018-09-18T13:46:27.696Z,85.30
2018-09-18T13:48:56.053Z,85.20
2018-09-18T13:51:24.432Z,86.60
2018-09-18T13:53:52.828Z,86.70
2018-09-18T13:56:21.251Z,87.80
2018-09-18T13:58:49.490Z,88.00
2018-09-18T14:01:18.876Z,89.00
2018-09-18T14:03:47.482Z,88.30
2018-09-18T14:06:15.888Z,89.50
2018-09-18T14:08:44.213Z,89.40
2018-09-18T14:11:12.620Z,89.90
2018-09-18T14:13:41.036Z,86.20
2018-09-18T14:16:13.856Z,83.80
2018-09-18T14:18:42.321Z,82.40
2018-09-18T14:21:11.746Z,81.20
2018-09-18T14:23:40.392Z,81.90
2018-09-18T14:26:08.730Z,80.40
2018-09-18T14:28:37.140Z,79.70
2018-09-18T14:31:05.660Z,79.00
2018-09-18T14:33:34.553Z,77.30
2018-09-18T14:36:02.929Z,77.60
2018-09-18T14:38:31.388Z,75.80
2018-09-18T14:41:00.401Z,74.10
2018-09-18T14:43:28.711Z,73.50
2018-09-18T14:45:57.075Z,74.20
2018-09-18T14:48:25.469Z,72.50
2018-09-18T14:50:53.760Z,72.80
2018-09-18T14:53:22.079Z,73.10
2018-09-18T14:55:50.372Z,69.70
2018-09-18T14:58:18.804Z,69.80
2018-09-18T15:00:47.104Z,70.10
2018-09-18T15:03:16.550Z,70.70
2018-09-18T15:05:45.017Z,71.60
2018-09-18T15:08:13.324Z,70.20
2018-09-18T15:10:42.374Z,71.50
2018-09-18T15:13:10.796Z,72.20
2018-09-18T15:15:39.354Z,72.60
2018-09-18T15:18:07.593Z,72.60
2018-09-18T15:20:35.928Z,72.60
2018-09-18T15:23:04.332Z,71.00
2018-09-18T15:25:32.628Z,70.90
2018-09-18T15:28:01.991Z,72.80
2018-09-18T15:30:30.623Z,71.70
2018-09-18T15:32:58.898Z,71.00
2018-09-18T15:35:27.177Z,71.80
2018-09-18T15:37:55.597Z,72.40
2018-09-18T15:40:23.872Z,72.00
2018-09-18T15:42:52.159Z,71.30
2018-09-18T15:45:20.461Z,72.40
2018-09-18T15:47:48.744Z,72.80
2018-09-18T15:50:17.061Z,72.60
2018-09-18T15:52:45.552Z,72.70
2018-09-18T15:55:13.858Z,73.50
2018-09-18T15:57:42.286Z,73.40
2018-09-18T16:00:10.577Z,74.30
2018-09-18T16:02:38.856Z,73.40
2018-09-18T16:05:07.171Z,73.80
2018-09-18T16:07:35.792Z,74.10
2018-09-18T16:10:04.205Z,73.90
2018-09-18T16:12:32.508Z,74.00
2018-09-18T16:15:00.830Z,74.40
2018-09-18T16:17:29.128Z,75.00
2018-09-18T16:19:57.473Z,75.80
2018-09-18T16:22:25.801Z,75.30
2018-09-18T16:24:54.114Z,75.60
2018-09-18T16:27:22.377Z,75.90
2018-09-18T16:29:50.692Z,77.00
2018-09-18T16:32:18.964Z,77.90
2018-09-18T16:34:47.254Z,77.90
2018-09-18T16:37:15.597Z,79.90
2018-09-18T16:39:43.893Z,79.50
2018-09-18T16:42:12.179Z,80.00
2018-09-18T16:44:40.492Z,81.00
2018-09-18T16:47:11.840Z,81.20
2018-09-18T16:49:41.226Z,82.10
2018-09-18T16:52:09.551Z,81.80
2018-09-18T16:54:38.028Z,82.00
2018-09-18T16:57:06.218Z,83.10
2018-09-18T16:59:34.495Z,84.20
2018-09-18T17:02:02.832Z,85.60
2018-09-18T17:04:31.110Z,85.20
2018-09-18T17:06:59.381Z,85.30
2018-09-18T17:09:28.001Z,85.90
2018-09-18T17:11:56.326Z,87.20
2018-09-18T17:14:24.721Z,86.30
2018-09-18T17:16:53.006Z,87.30
2018-09-18T17:19:21.325Z,88.70
2018-09-18T17:21:49.697Z,89.50
2018-09-18T17:24:17.980Z,88.60
2018-09-18T17:26:46.283Z,89.80
2018-09-18T17:29:14.605Z,91.00
2018-09-18T17:31:42.891Z,91.70
2018-09-18T17:34:11.286Z,91.50
2018-09-18T17:36:39.623Z,91.30
2018-09-18T17:39:09.141Z,92.30
2018-09-18T17:41:37.613Z,92.60
2018-09-18T17:44:06.167Z,92.50
2018-09-18T17:46:34.476Z,92.80
2018-09-18T17:49:02.819Z,92.20
2018-09-18T17:51:31.109Z,93.30
2018-09-18T17:53:59.399Z,94.00
2018-09-18T17:56:27.747Z,93.90
2018-09-18T17:58:56.320Z,94.10
2018-09-18T18:01:24.634Z,95.10
2018-09-18T18:03:53.330Z,95.40
2018-09-18T18:06:21.715Z,96.00
2018-09-18T18:08:50.104Z,96.30
2018-09-18T18:11:25.151Z,96.90
2018-09-18T18:13:53.504Z,97.70
2018-09-18T18:16:21.864Z,98.60
2018-09-18T18:18:50.223Z,98.70
2018-09-18T18:21:18.553Z,98.90
2018-09-18T18:23:46.900Z,99.10
2018-09-18T18:26:15.335Z,99.50
2018-09-18T18:28:43.676Z,99.30
2018-09-18T18:31:12.056Z,99.60
2018-09-18T18:33:40.585Z,99.90
2018-09-18T18:36:08.941Z,99.90
2018-09-18T18:38:37.264Z,99.90
2018-09-18T18:41:05.752Z,99.90
2018-09-18T18:43:34.157Z,99.90
2018-09-18T18:46:02.502Z,99.90
2018-09-18T18:48:31.164Z,99.90
2018-09-18T18:50:59.418Z,99.90
2018-09-18T18:53:27.745Z,99.90
2018-09-18T18:55:56.124Z,99.90
2018-09-18T18:58:24.489Z,99.90
2018-09-18T19:00:52.840Z,99.90
2018-09-18T19:03:21.184Z,99.90
2018-09-18T19:05:49.522Z,99.90
2018-09-18T19:08:17.899Z,99.90
2018-09-18T19:10:46.282Z,99.90
2018-09-18T19:13:14.639Z,99.90
2018-09-18T19:15:42.998Z,99.90
2018-09-18T19:18:11.363Z,99.90
2018-09-18T19:20:39.755Z,99.90
2018-09-18T19:23:08.171Z,99.90
2018-09-18T19:25:36.632Z,99.90
2018-09-18T19:28:05.246Z,99.90
2018-09-18T19:30:33.615Z,99.90
2018-09-18T19:33:02.174Z,99.90
2018-09-18T19:35:30.516Z,99.90
2018-09-18T19:37:58.899Z,99.90
2018-09-18T19:40:27.320Z,99.90
2018-09-18T19:42:55.711Z,99.90
2018-09-18T19:45:24.023Z,99.90
2018-09-18T19:47:52.392Z,99.90
2018-09-18T19:50:20.699Z,99.90
2018-09-18T19:52:49.176Z,99.90
2018-09-18T19:55:17.940Z,99.90
2018-09-18T19:57:46.605Z,99.90
2018-09-18T20:00:14.977Z,99.90
2018-09-18T20:02:43.462Z,99.90
2018-09-18T20:05:12.369Z,99.90
2018-09-18T20:07:40.739Z,99.90
2018-09-18T20:10:09.114Z,99.90
2018-09-18T20:12:37.432Z,99.90
2018-09-18T20:15:05.841Z,99.90
2018-09-18T20:17:34.436Z,99.90
2018-09-18T20:20:02.752Z,99.90
2018-09-18T20:22:31.090Z,99.90
2018-09-18T20:24:59.405Z,99.90
2018-09-18T20:27:27.716Z,99.90
2018-09-18T20:29:56.022Z,99.90
2018-09-18T20:32:24.368Z,99.90
2018-09-18T20:34:52.935Z,99.90
2018-09-18T20:37:21.247Z,99.90
2018-09-18T20:39:49.601Z,99.90
2018-09-18T20:42:17.890Z,99.90
2018-09-18T20:44:46.200Z,99.90
2018-09-18T20:47:14.502Z,99.90
2018-09-18T20:49:42.865Z,99.90
2018-09-18T20:52:11.175Z,99.90
2018-09-18T20:54:39.466Z,99.90
2018-09-18T20:57:08.071Z,99.90
2018-09-18T20:59:42.878Z,99.90
2018-09-18T21:02:11.281Z,99.90
2018-09-18T21:04:39.469Z,99.90
2018-09-18T21:07:07.766Z,99.90
2018-09-18T21:09:36.308Z,99.90
2018-09-18T21:12:04.595Z,99.90
2018-09-18T21:14:32.941Z,99.90
2018-09-18T21:17:01.224Z,99.90
2018-09-18T21:19:29.505Z,99.90
2018-09-18T21:21:57.814Z,99.90
2018-09-18T21:24:26.320Z,99.90
2018-09-18T21:26:54.620Z,99.90
2018-09-18T21:29:23.074Z,99.90
2018-09-18T21:31:51.380Z,99.90
2018-09-18T21:34:19.677Z,99.90
2018-09-18T21:36:47.992Z,99.90
2018-09-18T21:39:16.300Z,99.90
2018-09-18T21:41:44.617Z,99.90
2018-09-18T21:44:12.926Z,99.90
2018-09-18T21:46:41.222Z,99.90
2018-09-18T21:49:09.834Z,99.90
2018-09-18T21:51:38.166Z,99.90
2018-09-18T21:54:06.516Z,99.90
2018-09-18T21:56:34.824Z,99.90
2018-09-18T21:59:03.197Z,99.90
2018-09-18T22:01:31.545Z,99.90
2018-09-18T22:03:59.775Z,99.90
2018-09-18T22:06:28.091Z,99.90
2018-09-18T22:08:56.437Z,99.90
2018-09-18T22:11:24.728Z,99.90
2018-09-18T22:13:59.671Z,99.90
2018-09-18T22:16:27.945Z,99.90
2018-09-18T22:18:56.252Z,99.90
2018-09-18T22:21:24.556Z,99.90
2018-09-18T22:23:52.849Z,99.90
2018-09-18T22:26:21.145Z,99.90
2018-09-18T22:28:49.636Z,99.90
2018-09-18T22:31:17.918Z,99.90
2018-09-18T22:33:46.342Z,99.90
2018-09-18T22:36:14.659Z,99.90
2018-09-18T22:38:42.944Z,99.90
2018-09-18T22:41:11.252Z,99.90
2018-09-18T22:43:39.609Z,99.90
2018-09-18T22:46:07.937Z,99.90
2018-09-18T22:48:36.591Z,99.90
2018-09-18T22:51:04.896Z,99.90
2018-09-18T22:53:33.181Z,99.90
2018-09-18T22:56:01.495Z,99.90
2018-09-18T22:58:29.812Z,99.90
2018-09-18T23:00:58.120Z,99.90
2018-09-18T23:03:26.404Z,99.90
2018-09-18T23:05:54.761Z,99.90
2018-09-18T23:08:23.075Z,99.90
2018-09-18T23:10:51.384Z,99.90
2018-09-18T23:13:19.749Z,99.90
2018-09-18T23:15:48.072Z,99.90
2018-09-18T23:18:16.373Z,99.90
2018-09-18T23:20:44.742Z,99.90
2018-09-18T23:23:13.039Z,99.90
2018-09-18T23:25:41.328Z,99.90
2018-09-18T23:28:09.651Z,99.90
2018-09-18T23:30:37.952Z,99.90
2018-09-18T23:33:06.349Z,99.90
2018-09-18T23:35:34.932Z,99.90
2018-09-18T23:38:03.224Z,99.90
2018-09-18T23:40:31.531Z,99.90
2018-09-18T23:43:00.109Z,99.90
2018-09-18T23:45:28.406Z,99.90
2018-09-18T23:47:56.715Z,99.90
2018-09-18T23:50:25.045Z,99.90
2018-09-18T23:52:53.360Z,99.90
2018-09-18T23:55:21.633Z,99.90
2018-09-18T23:57:56.490Z,99.90
